Time;durP1;ratioP1;P1;durP2;ratioP2;P2;SDS_P1;SDS_P2;PMS_P1;PMS_P2;Temp;Humidity;BMP_temperature;BMP_pressure;BME280_temperature;BME280_humidity;BME280_pressure;Samples;Min_cycle;Max_cycle;Signal;HPM_P1;HPM_P2
2022/11/15 00:01:38;;;;;;;;;4.67;3.67;;;;;12.94;76.22;100706.94;5058768;28;47037;-48
2022/11/15 00:04:04;;;;;;;;;6.00;6.00;;;;;12.94;76.31;100717.63;5058568;28;45431;-48
2022/11/15 00:06:30;;;;;;;;;9.00;7.33;;;;;12.94;76.45;100722.97;5058833;28;45344;-44
2022/11/15 00:08:58;;;;;;;;;5.67;5.33;;;;;12.92;76.31;100712.44;5058850;28;45374;-46
2022/11/15 00:11:23;;;;;;;;;4.67;4.00;;;;;12.93;76.54;100714.09;5058696;28;45441;-48
2022/11/15 00:13:48;;;;;;;;;5.67;3.33;;;;;12.91;76.49;100712.59;5058564;28;45253;-46
2022/11/15 00:16:14;;;;;;;;;10.00;8.00;;;;;12.88;75.82;100702.25;5058810;28;45312;-48
2022/11/15 00:18:39;;;;;;;;;7.33;7.33;;;;;12.83;76.14;100705.41;5058794;28;45511;-47
2022/11/15 00:21:07;;;;;;;;;5.33;4.00;;;;;12.79;76.25;100698.72;5058459;28;45216;-45
2022/11/15 00:23:33;;;;;;;;;6.00;6.00;;;;;12.74;75.66;100699.22;5057299;28;45951;-46
2022/11/15 00:25:59;;;;;;;;;4.00;4.00;;;;;12.74;75.70;100696.53;5058310;28;45330;-47
2022/11/15 00:28:25;;;;;;;;;6.00;3.00;;;;;12.72;75.71;100697.69;5058676;28;45324;-44
2022/11/15 00:30:51;;;;;;;;;6.33;3.67;;;;;12.65;76.10;100688.66;5058256;28;47310;-46
2022/11/15 00:33:17;;;;;;;;;6.33;4.00;;;;;12.65;75.30;100692.19;5058112;28;45230;-48
2022/11/15 00:35:42;;;;;;;;;6.33;6.33;;;;;12.58;75.43;100688.47;5058515;28;45300;-45
2022/11/15 00:38:07;;;;;;;;;7.00;4.67;;;;;12.53;75.53;100696.13;5058285;28;45488;-46
2022/11/15 00:40:33;;;;;;;;;4.67;3.67;;;;;12.48;75.55;100690.44;5057857;28;45349;-46
2022/11/15 00:42:58;;;;;;;;;6.67;4.00;;;;;12.42;75.50;100683.91;5058268;28;45273;-45
2022/11/15 00:45:24;;;;;;;;;8.00;4.67;;;;;12.32;75.56;100664.53;5058171;28;45511;-46
2022/11/15 00:47:50;;;;;;;;;7.67;4.00;;;;;12.38;76.03;100671.88;5058095;28;45315;-44
2022/11/15 00:50:16;;;;;;;;;4.67;4.67;;;;;12.34;75.72;100675.03;5057864;28;45520;-46
2022/11/15 00:52:42;;;;;;;;;3.67;2.67;;;;;12.29;75.31;100677.34;5057963;28;45456;-45
2022/11/15 00:55:14;;;;;;;;;7.67;3.00;;;;;12.13;75.63;100662.91;5058143;28;45508;-45
2022/11/15 00:57:39;;;;;;;;;4.33;3.67;;;;;12.22;75.60;100675.31;5058159;28;45398;-45
2022/11/15 01:00:06;;;;;;;;;6.00;3.00;;;;;12.18;75.15;100678.47;5057579;28;46195;-46
2022/11/15 01:02:31;;;;;;;;;8.67;3.00;;;;;12.10;75.70;100673.91;5057600;28;45490;-47
2022/11/15 01:04:56;;;;;;;;;3.67;3.67;;;;;11.73;75.79;100613.69;5057855;28;45322;-47
2022/11/15 01:07:21;;;;;;;;;5.33;4.00;;;;;12.01;75.86;100660.69;5058196;28;45413;-47
2022/11/15 01:09:47;;;;;;;;;6.33;4.00;;;;;12.02;75.76;100667.72;5057605;28;46007;-48
2022/11/15 01:12:12;;;;;;;;;6.67;3.33;;;;;12.00;75.48;100665.19;5057739;28;45302;-46
2022/11/15 01:14:38;;;;;;;;;7.00;7.00;;;;;11.99;76.16;100661.69;5057743;28;45364;-46
2022/11/15 01:17:03;;;;;;;;;6.67;4.33;;;;;11.96;75.60;100662.00;5057932;28;45423;-47
2022/11/15 01:19:28;;;;;;;;;3.33;3.33;;;;;11.91;76.05;100658.13;5057521;28;45409;-46
2022/11/15 01:21:53;;;;;;;;;4.67;4.00;;;;;11.88;76.29;100653.97;5056311;28;45351;-46
2022/11/15 01:24:19;;;;;;;;;9.33;4.33;;;;;11.81;75.71;100650.22;5057623;28;45322;-44
2022/11/15 01:26:44;;;;;;;;;9.67;6.33;;;;;11.75;76.40;100645.50;5057790;28;45362;-47
2022/11/15 01:29:09;;;;;;;;;4.00;4.00;;;;;11.70;76.49;100650.47;5057019;28;45452;-45
2022/11/15 01:31:35;;;;;;;;;6.00;3.00;;;;;11.63;76.60;100646.75;5057499;28;45430;-47
2022/11/15 01:34:00;;;;;;;;;4.67;4.67;;;;;11.62;76.58;100640.59;5057314;28;45419;-44
2022/11/15 01:36:25;;;;;;;;;7.00;5.00;;;;;11.61;76.17;100633.59;5056219;28;45599;-45
2022/11/15 01:38:55;;;;;;;;;6.00;5.67;;;;;11.59;76.13;100634.75;5057364;28;45299;-46
2022/11/15 01:41:27;;;;;;;;;2.00;2.00;;;;;11.57;75.90;100626.91;5057300;28;45541;-44
2022/11/15 01:43:55;;;;;;;;;5.67;3.00;;;;;11.53;76.07;100630.88;5057577;28;45226;-44
2022/11/15 01:46:35;;;;;;;;;3.33;2.33;;;;;11.50;76.05;100628.50;5057506;28;45338;-48
2022/11/15 01:49:11;;;;;;;;;3.00;3.00;;;;;11.44;75.96;100626.47;5056695;28;47244;-44
2022/11/15 01:51:38;;;;;;;;;6.00;5.00;;;;;11.41;76.01;100624.13;5056951;28;45324;-45
2022/11/15 01:54:10;;;;;;;;;6.67;4.00;;;;;11.31;76.02;100618.88;5057258;28;45276;-48
2022/11/15 01:56:49;;;;;;;;;4.67;3.00;;;;;11.28;76.24;100607.69;5057383;28;45230;-45
2022/11/15 01:59:14;;;;;;;;;2.33;2.33;;;;;11.22;75.58;100611.84;5056763;28;46047;-47
2022/11/15 02:01:40;;;;;;;;;5.33;3.00;;;;;11.17;76.02;100601.66;5056864;28;45427;-46
2022/11/15 02:04:22;;;;;;;;;6.00;4.33;;;;;11.13;75.64;100591.47;5057087;28;45477;-47
2022/11/15 02:06:48;;;;;;;;;7.33;5.00;;;;;11.09;75.62;100590.09;5057149;28;45230;-45
2022/11/15 02:09:14;;;;;;;;;6.33;4.33;;;;;11.05;75.76;100594.88;5056583;28;46101;-46
2022/11/15 02:11:41;;;;;;;;;3.33;3.33;;;;;11.01;75.75;100590.84;5056963;28;45218;-45
2022/11/15 02:14:07;;;;;;;;;5.00;3.00;;;;;10.95;75.54;100588.78;5056780;28;45468;-47
2022/11/15 02:17:06;;;;;;;;;6.67;5.00;;;;;10.93;75.88;100585.47;5056906;28;45370;-44
2022/11/15 02:19:31;;;;;;;;;5.00;5.00;;;;;10.91;75.22;100582.09;5056855;28;46567;-47
2022/11/15 02:22:32;;;;;;;;;3.67;3.67;;;;;10.85;75.50;100564.94;5060468;28;45418;-45
2022/11/15 02:25:57;;;;;;;;;6.67;6.67;;;;;10.83;75.64;100574.03;4998403;28;45342;-43
2022/11/15 02:28:44;;;;;;;;;7.00;6.00;;;;;10.85;75.62;100572.06;4920913;28;45400;-45
2022/11/15 02:31:31;;;;;;;;;4.67;4.33;;;;;10.78;75.68;100569.19;4920260;28;45467;-45
2022/11/15 02:34:17;;;;;;;;;5.33;3.00;;;;;10.78;75.60;100560.34;4920105;28;45469;-44
2022/11/15 02:36:54;;;;;;;;;5.33;4.67;;;;;10.72;75.34;100560.00;4920418;28;45328;-44
2022/11/15 02:39:25;;;;;;;;;6.33;2.67;;;;;10.64;75.55;100557.25;4920403;28;45514;-46
2022/11/15 02:43:56;;;;;;;;;3.33;3.00;;;;;10.57;76.15;100552.69;4920132;28;45358;-48
2022/11/15 02:44:57;;;;;;;;;5.67;2.00;;;;;10.49;75.96;100519.72;4919855;28;45481;-44
2022/11/15 02:47:26;;;;;;;;;3.67;3.67;;;;;10.58;76.12;100541.06;4920203;28;45389;-46
2022/11/15 02:49:54;;;;;;;;;5.67;5.67;;;;;10.60;75.79;100536.44;4920490;28;45388;-45
2022/11/15 02:52:21;;;;;;;;;7.33;3.00;;;;;10.55;76.40;100530.72;4919845;28;45371;-46
2022/11/15 02:55:00;;;;;;;;;8.67;5.67;;;;;10.59;76.23;100540.91;4920027;28;45384;-46
2022/11/15 02:57:37;;;;;;;;;5.00;5.00;;;;;10.62;75.94;100532.63;4919990;28;45328;-45
2022/11/15 03:00:07;;;;;;;;;6.00;3.00;;;;;10.64;75.80;100520.00;4993553;28;45550;-45
2022/11/15 03:02:41;;;;;;;;;7.00;5.00;;;;;10.60;76.15;100512.50;5002866;28;46133;-45
2022/11/15 03:05:09;;;;;;;;;4.33;3.00;;;;;10.61;75.86;100512.31;5059446;28;45209;-47
2022/11/15 03:07:41;;;;;;;;;8.67;4.33;;;;;10.62;75.77;100508.69;5059784;28;45392;-46
2022/11/15 03:10:21;;;;;;;;;5.67;3.00;;;;;10.55;75.89;100501.47;5059755;28;45372;-44
2022/11/15 03:13:00;;;;;;;;;7.00;5.00;;;;;10.40;76.05;100485.19;5059250;28;47679;-45
2022/11/15 03:15:29;;;;;;;;;8.00;6.00;;;;;10.47;75.92;100495.09;5059253;28;45313;-45
2022/11/15 03:18:29;;;;;;;;;7.00;5.67;;;;;10.44;76.28;100491.88;5059426;28;45316;-46
2022/11/15 03:20:57;;;;;;;;;6.00;3.00;;;;;10.47;76.33;100494.25;4997452;28;45385;-46
2022/11/15 03:23:24;;;;;;;;;5.00;5.00;;;;;10.41;76.35;100490.38;4997096;28;46465;-47
2022/11/15 03:25:52;;;;;;;;;5.00;3.00;;;;;10.34;76.34;100477.84;4997142;28;45389;-46
2022/11/15 03:28:27;;;;;;;;;3.67;2.67;;;;;10.45;76.26;100489.09;4997442;28;45326;-45
2022/11/15 03:30:55;;;;;;;;;3.00;2.67;;;;;10.42;76.77;100481.41;4996655;28;45555;-46
2022/11/15 03:33:21;;;;;;;;;5.67;5.00;;;;;10.42;76.45;100483.25;4996509;28;46339;-44
2022/11/15 03:35:48;;;;;;;;;7.00;3.00;;;;;10.30;76.52;100466.66;4997303;28;45309;-46
2022/11/15 03:38:26;;;;;;;;;2.00;2.00;;;;;10.40;76.32;100480.72;4996957;28;45487;-46
2022/11/15 03:41:04;;;;;;;;;5.00;5.00;;;;;10.38;76.19;100480.03;4997146;28;45532;-47
2022/11/15 03:43:56;;;;;;;;;6.33;3.00;;;;;10.38;76.57;100476.56;4997008;28;45495;-47
2022/11/15 03:46:31;;;;;;;;;5.00;2.00;;;;;10.28;76.24;100463.34;4996934;28;45520;-45
2022/11/15 03:49:11;;;;;;;;;5.67;3.00;;;;;10.33;76.61;100466.38;4996641;28;45558;-46
2022/11/15 03:51:37;;;;;;;;;5.33;3.00;;;;;10.32;75.99;100469.16;4997122;28;45323;-47
2022/11/15 03:54:04;;;;;;;;;2.00;2.00;;;;;10.28;76.60;100473.13;4996179;28;45801;-46
2022/11/15 03:56:29;;;;;;;;;6.00;2.00;;;;;10.22;76.80;100466.56;5028600;28;45472;-44
2022/11/15 03:58:55;;;;;;;;;5.00;2.67;;;;;10.21;76.84;100465.72;5058754;28;45209;-47
2022/11/15 04:01:20;;;;;;;;;2.33;1.00;;;;;10.20;76.79;100456.09;5058755;28;45332;-46
2022/11/15 04:03:46;;;;;;;;;5.33;3.00;;;;;10.22;76.84;100448.78;5058628;28;45924;-47
2022/11/15 04:06:11;;;;;;;;;5.00;3.00;;;;;10.22;76.66;100445.28;5058682;28;45351;-45
2022/11/15 04:08:36;;;;;;;;;2.33;2.00;;;;;10.17;77.14;100451.06;5058666;28;45324;-45
2022/11/15 04:11:02;;;;;;;;;5.00;3.00;;;;;10.16;77.14;100460.03;5059141;28;45397;-46
2022/11/15 04:13:27;;;;;;;;;2.67;2.00;;;;;10.14;77.29;100455.84;5058567;28;46288;-45
2022/11/15 04:15:52;;;;;;;;;2.00;2.00;;;;;10.17;77.40;100459.03;5058802;28;45346;-47
2022/11/15 04:18:18;;;;;;;;;3.67;2.33;;;;;10.18;77.16;100449.25;5058675;28;45311;-47
2022/11/15 04:24:11;;;;;;;;;3.00;1.33;;;;;10.21;77.47;100454.25;5058527;28;45414;-44
2022/11/15 04:26:31;;;;;;;;;3.33;2.33;;;;;10.16;76.83;100454.72;5058249;28;45161;-46
2022/11/15 04:31:40;;;;;;;;;3.00;3.00;;;;;10.11;77.22;100445.50;5058759;28;45359;-44
2022/11/15 04:34:06;;;;;;;;;1.00;1.00;;;;;10.12;77.44;100442.72;5057994;28;45908;-45
2022/11/15 04:39:15;;;;;;;;;2.33;2.33;;;;;9.98;77.29;100424.63;5058482;28;45220;-46
2022/11/15 04:41:40;;;;;;;;;4.33;2.00;;;;;10.10;77.25;100433.22;5058645;28;45236;-47
2022/11/15 04:44:06;;;;;;;;;2.33;2.33;;;;;10.09;77.76;100434.19;5057767;28;45408;-46
2022/11/15 04:46:31;;;;;;;;;3.67;1.67;;;;;10.06;77.69;100421.22;5058326;28;45418;-45
2022/11/15 04:48:56;;;;;;;;;2.00;2.00;;;;;9.95;77.30;100415.16;5057936;28;45768;-44
2022/11/15 04:51:22;;;;;;;;;5.33;2.00;;;;;9.96;77.79;100411.50;5058798;28;45407;-44
2022/11/15 04:53:47;;;;;;;;;1.33;1.00;;;;;9.96;77.76;100405.34;5056748;28;45939;-44
2022/11/15 04:56:13;;;;;;;;;8.33;2.00;;;;;9.87;78.17;100391.16;5058058;28;45405;-45
2022/11/15 04:58:38;;;;;;;;;5.00;2.67;;;;;9.93;78.42;100397.66;5058012;28;45371;-44
2022/11/15 05:01:14;;;;;;;;;5.67;1.67;;;;;9.92;77.83;100396.00;5058053;28;45411;-44
2022/11/15 05:06:28;;;;;;;;;5.00;2.00;;;;;9.90;78.87;100406.78;5057781;28;45501;-46
2022/11/15 05:08:54;;;;;;;;;5.33;5.00;;;;;9.92;78.17;100390.69;5057794;28;45332;-46
2022/11/15 05:11:20;;;;;;;;;3.00;3.00;;;;;9.96;78.16;100387.56;5057973;28;45302;-45
2022/11/15 05:13:45;;;;;;;;;5.67;3.00;;;;;9.97;78.29;100399.03;5056280;28;46952;-48
2022/11/15 05:16:11;;;;;;;;;6.00;6.00;;;;;9.90;78.30;100388.19;5057427;28;45305;-48
2022/11/15 05:18:36;;;;;;;;;5.33;5.33;;;;;9.88;78.48;100386.66;5057559;28;45304;-47
2022/11/15 05:21:10;;;;;;;;;5.00;3.67;;;;;9.88;78.85;100390.16;5057559;28;45780;-45
2022/11/15 05:23:36;;;;;;;;;6.67;5.67;;;;;9.88;78.90;100382.19;5057319;28;45267;-47
2022/11/15 05:26:04;;;;;;;;;7.00;5.00;;;;;9.86;79.29;100389.47;5057339;28;45464;-44
2022/11/15 05:28:30;;;;;;;;;6.33;3.00;;;;;9.85;78.97;100395.75;5057529;28;45443;-46
2022/11/15 05:31:14;;;;;;;;;5.00;5.00;;;;;9.75;79.25;100368.44;5057353;28;45429;-45
2022/11/15 05:33:42;;;;;;;;;7.67;5.00;;;;;9.89;79.38;100383.84;5056993;28;45553;-45
2022/11/15 05:36:29;;;;;;;;;10.33;7.00;;;;;9.84;79.29;100377.31;5057395;28;45343;-45
2022/11/15 05:38:55;;;;;;;;;7.33;6.00;;;;;9.89;79.48;100385.66;5057502;28;45176;-45
2022/11/15 05:41:26;;;;;;;;;5.67;5.33;;;;;9.89;79.66;100390.97;5057333;28;45252;-47
2022/11/15 05:43:53;;;;;;;;;5.33;5.00;;;;;9.89;79.79;100390.97;5056781;28;45320;-44
2022/11/15 05:46:19;;;;;;;;;6.33;5.33;;;;;9.87;79.79;100387.66;5057170;28;45199;-47
2022/11/15 05:48:49;;;;;;;;;15.00;7.33;;;;;9.92;79.90;100394.19;5056988;28;45365;-48
2022/11/15 05:51:17;;;;;;;;;6.67;5.00;;;;;9.99;80.02;100400.56;5057301;28;45410;-45
2022/11/15 05:53:44;;;;;;;;;10.33;6.00;;;;;9.97;79.94;100394.56;5056607;28;46053;-47
2022/11/15 05:56:09;;;;;;;;;6.33;3.00;;;;;10.03;79.90;100385.16;5056255;28;45291;-45
2022/11/15 05:58:37;;;;;;;;;5.67;4.33;;;;;10.04;80.15;100378.84;5057070;28;45256;-47
2022/11/15 06:01:02;;;;;;;;;5.67;3.00;;;;;9.96;80.17;100368.97;5057401;28;45468;-44
2022/11/15 06:03:28;;;;;;;;;9.00;5.00;;;;;10.03;80.09;100373.66;5056866;28;45409;-45
2022/11/15 06:05:53;;;;;;;;;6.67;2.67;;;;;10.06;80.26;100363.56;5056787;28;45462;-43
2022/11/15 06:08:18;;;;;;;;;6.00;3.00;;;;;10.09;80.24;100365.09;5056904;28;45355;-46
2022/11/15 06:10:44;;;;;;;;;3.00;3.00;;;;;10.04;80.51;100352.28;5057184;28;45321;-45
2022/11/15 06:13:09;;;;;;;;;8.67;4.33;;;;;10.06;80.51;100346.78;5056839;28;46038;-46
2022/11/15 06:15:34;;;;;;;;;5.00;4.33;;;;;10.09;80.58;100328.72;5056840;28;45322;-46
2022/11/15 06:18:00;;;;;;;;;6.67;1.67;;;;;10.07;80.92;100344.00;5057054;28;45484;-43
2022/11/15 06:20:27;;;;;;;;;3.00;3.00;;;;;10.11;80.17;100341.84;5056795;28;45340;-45
2022/11/15 06:23:01;;;;;;;;;7.33;5.00;;;;;10.14;80.48;100337.06;5056688;28;46176;-44
2022/11/15 06:25:28;;;;;;;;;5.00;2.33;;;;;10.14;80.51;100328.25;5056678;28;45380;-45
2022/11/15 06:27:58;;;;;;;;;6.00;5.00;;;;;10.17;80.20;100322.66;5056744;28;45459;-46
2022/11/15 06:30:25;;;;;;;;;3.67;3.67;;;;;10.17;80.49;100328.78;5056899;28;45250;-46
2022/11/15 06:32:51;;;;;;;;;5.67;5.67;;;;;10.16;80.47;100318.34;5056446;28;46340;-45
2022/11/15 06:35:17;;;;;;;;;10.67;3.00;;;;;10.18;80.48;100308.34;5056394;28;45589;-48
2022/11/15 06:37:42;;;;;;;;;4.33;3.67;;;;;10.18;80.61;100309.19;5056758;28;45264;-46
2022/11/15 06:40:09;;;;;;;;;7.00;3.00;;;;;10.21;80.38;100311.56;5056661;28;45362;-46
2022/11/15 06:42:35;;;;;;;;;5.00;4.00;;;;;10.19;80.57;100300.22;5056530;28;45415;-47
2022/11/15 06:45:01;;;;;;;;;2.00;2.00;;;;;10.22;80.49;100305.22;5056418;28;45504;-46
2022/11/15 06:47:26;;;;;;;;;10.67;3.00;;;;;10.23;80.68;100300.75;5056426;28;45472;-45
2022/11/15 06:49:51;;;;;;;;;3.67;3.67;;;;;10.23;80.74;100288.28;5056705;28;45358;-46
2022/11/15 06:52:18;;;;;;;;;5.00;5.00;;;;;10.28;80.61;100295.00;5056260;28;45298;-48
2022/11/15 06:54:44;;;;;;;;;6.67;3.00;;;;;10.26;80.87;100279.22;5056485;28;45440;-47
2022/11/15 06:57:10;;;;;;;;;8.67;5.00;;;;;10.22;80.71;100270.69;5056404;28;45417;-47
2022/11/15 06:59:35;;;;;;;;;6.67;5.67;;;;;10.27;80.75;100285.34;5056522;28;45471;-48
2022/11/15 07:02:01;;;;;;;;;6.00;3.67;;;;;10.26;80.99;100265.09;5056237;28;46313;-48
2022/11/15 07:04:26;;;;;;;;;7.00;5.00;;;;;10.30;80.92;100264.63;5056263;28;45427;-45
2022/11/15 07:06:51;;;;;;;;;4.33;3.00;;;;;10.30;80.42;100269.09;5058699;28;45266;-47
2022/11/15 07:09:17;;;;;;;;;6.00;4.33;;;;;10.29;81.26;100251.50;5060157;28;45208;-48
2022/11/15 07:11:42;;;;;;;;;3.00;3.00;;;;;10.30;81.40;100243.34;5059531;28;45986;-47
2022/11/15 07:14:07;;;;;;;;;7.00;5.00;;;;;10.33;81.40;100244.88;5059533;28;45234;-48
2022/11/15 07:16:33;;;;;;;;;6.00;3.00;;;;;10.32;81.26;100232.53;5059759;28;45478;-47
2022/11/15 07:18:58;;;;;;;;;5.33;3.00;;;;;10.32;81.29;100243.19;5059948;28;45401;-47
2022/11/15 07:21:24;;;;;;;;;7.67;2.67;;;;;10.33;81.24;100255.50;5058177;28;47006;-47
2022/11/15 07:23:49;;;;;;;;;8.67;4.33;;;;;10.36;81.64;100260.50;5058234;28;45327;-45
2022/11/15 07:26:14;;;;;;;;;9.33;5.67;;;;;10.37;81.37;100254.19;5059743;28;45339;-47
2022/11/15 07:28:40;;;;;;;;;6.33;3.00;;;;;10.45;81.38;100251.59;5059628;28;45170;-47
2022/11/15 07:31:07;;;;;;;;;9.33;4.67;;;;;10.48;81.19;100246.75;5059390;28;45260;-45
2022/11/15 07:33:33;;;;;;;;;3.67;3.00;;;;;10.48;81.38;100241.44;5058906;28;45425;-45
2022/11/15 07:36:03;;;;;;;;;2.00;2.00;;;;;10.41;81.10;100224.47;5057752;28;45591;-46
2022/11/15 07:38:29;;;;;;;;;6.33;3.67;;;;;10.51;81.30;100248.28;5059504;28;45275;-44
2022/11/15 07:40:59;;;;;;;;;3.33;3.33;;;;;10.53;81.46;100254.28;5058768;28;45967;-47
2022/11/15 07:43:25;;;;;;;;;4.33;2.00;;;;;10.56;81.13;100245.97;5059073;28;45954;-46
2022/11/15 07:45:50;;;;;;;;;6.00;6.00;;;;;10.60;81.14;100238.53;5059049;28;45417;-46
2022/11/15 07:48:15;;;;;;;;;4.00;2.00;;;;;10.62;80.83;100237.38;5058970;28;45376;-49
2022/11/15 07:50:42;;;;;;;;;6.00;6.00;;;;;10.66;81.08;100229.88;5058838;28;45579;-47
2022/11/15 07:53:08;;;;;;;;;3.00;3.00;;;;;10.68;80.80;100228.75;5058898;28;45401;-47
2022/11/15 07:55:34;;;;;;;;;6.67;3.67;;;;;10.70;80.55;100221.47;5058793;28;45217;-47
2022/11/15 07:58:01;;;;;;;;;3.67;3.67;;;;;10.72;80.67;100210.66;5059075;28;45201;-45
2022/11/15 08:00:27;;;;;;;;;5.00;2.67;;;;;10.71;80.53;100207.16;5058408;28;46510;-47
2022/11/15 08:02:52;;;;;;;;;4.33;2.00;;;;;10.73;80.80;100202.50;5058687;28;45311;-48
2022/11/15 08:05:17;;;;;;;;;3.00;1.00;;;;;10.78;80.61;100195.84;5058741;28;45373;-45
2022/11/15 08:07:43;;;;;;;;;7.67;3.67;;;;;10.79;80.59;100194.84;5058808;28;45466;-47
2022/11/15 08:10:08;;;;;;;;;7.00;4.00;;;;;10.82;80.03;100194.53;5058591;28;46057;-47
2022/11/15 08:12:34;;;;;;;;;3.00;3.00;;;;;10.82;80.49;100189.22;5058478;28;45273;-49
2022/11/15 08:14:59;;;;;;;;;3.67;1.67;;;;;10.86;80.25;100195.88;5058804;28;45353;-46
2022/11/15 08:17:25;;;;;;;;;1.00;1.00;;;;;10.90;80.20;100191.91;5058231;28;45303;-48
2022/11/15 08:19:50;;;;;;;;;2.33;2.33;;;;;10.93;79.93;100197.75;5058068;28;46233;-47
2022/11/15 08:22:16;;;;;;;;;2.00;2.00;;;;;10.90;79.97;100186.59;5058409;28;45371;-49
2022/11/15 08:24:41;;;;;;;;;2.67;2.67;;;;;11.01;79.62;100196.94;5058478;28;45248;-47
2022/11/15 08:27:14;;;;;;;;;4.00;2.00;;;;;11.03;79.62;100197.59;5058757;28;45302;-48
2022/11/15 08:29:44;;;;;;;;;7.33;5.00;;;;;11.01;80.03;100174.81;5058368;28;47223;-45
2022/11/15 08:32:10;;;;;;;;;3.67;3.33;;;;;11.19;79.47;100196.78;5057868;28;45398;-49
2022/11/15 08:34:37;;;;;;;;;5.00;4.33;;;;;11.17;79.23;100165.03;5058309;28;45358;-49
2022/11/15 08:37:02;;;;;;;;;2.33;2.00;;;;;11.29;78.95;100188.66;5058356;28;45431;-47
2022/11/15 08:39:27;;;;;;;;;6.00;3.00;;;;;11.35;79.05;100182.69;5057868;28;45569;-46
2022/11/15 08:41:53;;;;;;;;;3.00;3.00;;;;;11.41;78.57;100182.00;5058169;28;45446;-48
2022/11/15 08:44:18;;;;;;;;;3.00;3.00;;;;;11.44;78.68;100187.00;5057969;28;45256;-50
2022/11/15 08:46:45;;;;;;;;;5.00;5.00;;;;;11.47;78.19;100171.53;5058535;28;45274;-46
2022/11/15 08:49:11;;;;;;;;;2.00;2.00;;;;;11.50;78.36;100159.69;5057698;28;45463;-45
2022/11/15 08:51:36;;;;;;;;;5.00;5.00;;;;;11.58;78.08;100165.03;5057729;28;45418;-47
2022/11/15 08:54:02;;;;;;;;;6.33;2.67;;;;;11.64;78.41;100159.03;5058144;28;45461;-46
2022/11/15 08:56:27;;;;;;;;;6.33;6.00;;;;;11.70;78.04;100158.34;5058071;28;45698;-46
2022/11/15 08:58:52;;;;;;;;;3.33;3.00;;;;;11.74;77.79;100148.19;5057769;28;45367;-46
2022/11/15 09:01:20;;;;;;;;;5.33;3.00;;;;;11.72;77.78;100136.88;5057580;28;45394;-44
2022/11/15 09:03:45;;;;;;;;;4.00;2.67;;;;;11.78;77.41;100138.03;5057818;28;45330;-45
2022/11/15 09:06:11;;;;;;;;;4.67;4.67;;;;;11.82;77.14;100131.38;5057892;28;45285;-45
2022/11/15 09:08:37;;;;;;;;;7.00;3.00;;;;;11.85;76.92;100123.91;5057699;28;45878;-43
2022/11/15 09:11:06;;;;;;;;;5.00;2.67;;;;;11.90;77.40;100126.88;5057543;28;45537;-47
2022/11/15 09:13:32;;;;;;;;;3.67;3.67;;;;;11.91;77.47;100117.88;5057996;28;45339;-44
2022/11/15 09:15:59;;;;;;;;;7.33;4.33;;;;;11.97;76.56;100127.03;5057908;28;45208;-43
2022/11/15 09:18:24;;;;;;;;;3.00;3.00;;;;;11.97;76.70;100116.38;5057632;28;45486;-45
2022/11/15 09:20:50;;;;;;;;;5.33;3.00;;;;;12.02;76.56;100118.53;5057860;28;45387;-45
2022/11/15 09:23:15;;;;;;;;;5.00;2.33;;;;;12.03;76.09;100126.34;5058185;28;45424;-43
2022/11/15 09:25:40;;;;;;;;;6.67;2.67;;;;;12.07;76.59;100129.50;5058756;28;45240;-45
2022/11/15 09:28:07;;;;;;;;;3.33;2.00;;;;;12.05;75.88;100120.84;5058426;28;46995;-44
2022/11/15 09:30:32;;;;;;;;;5.00;3.00;;;;;12.05;76.54;100119.03;5057189;28;45417;-43
2022/11/15 09:32:58;;;;;;;;;11.00;5.67;;;;;12.13;75.75;100123.47;5058709;28;45375;-43
2022/11/15 09:35:23;;;;;;;;;4.00;3.00;;;;;12.11;76.18;100123.66;5058294;28;45450;-43
2022/11/15 09:37:48;;;;;;;;;7.67;4.00;;;;;12.18;76.08;100127.31;5057399;28;46100;-43
2022/11/15 09:40:17;;;;;;;;;10.00;6.67;;;;;12.20;75.76;100127.13;5057089;28;45368;-43
2022/11/15 09:43:28;;;;;;;;;12.33;6.00;;;;;12.22;75.68;100125.97;5057497;28;45304;-42
2022/11/15 09:45:54;;;;;;;;;8.00;4.00;;;;;12.28;75.34;100131.59;4975781;28;45384;-42
2022/11/15 09:48:37;;;;;;;;;6.33;6.33;;;;;12.27;75.58;100114.78;4975314;28;45464;-43
2022/11/15 09:51:08;;;;;;;;;10.67;6.67;;;;;12.33;75.05;100122.06;4975471;28;45427;-43
2022/11/15 09:54:03;;;;;;;;;3.00;3.00;;;;;12.36;75.69;100127.06;4975572;28;45330;-42
2022/11/15 09:56:36;;;;;;;;;12.67;7.33;;;;;12.37;75.93;100127.88;4969168;28;45382;-43
2022/11/15 09:59:17;;;;;;;;;7.67;5.33;;;;;12.37;75.81;100126.06;4974965;28;47087;-42
2022/11/15 10:02:19;;;;;;;;;6.00;5.33;;;;;12.37;75.98;100120.72;4974938;28;45526;-42
2022/11/15 10:04:46;;;;;;;;;8.33;6.67;;;;;12.35;76.29;100113.91;4974989;28;45365;-44
2022/11/15 10:07:47;;;;;;;;;8.00;4.00;;;;;12.31;76.56;100093.94;4974848;28;45493;-43
2022/11/15 10:10:39;;;;;;;;;8.00;6.67;;;;;12.34;77.26;100101.56;4964370;28;46095;-43
2022/11/15 10:13:16;;;;;;;;;6.00;5.33;;;;;12.32;78.37;100095.59;4974991;28;45418;-43
2022/11/15 10:15:45;;;;;;;;;8.33;7.00;;;;;12.32;77.57;100091.06;4986962;28;45484;-44
2022/11/15 10:18:20;;;;;;;;;3.00;3.00;;;;;12.26;77.75;100072.25;5057023;28;45350;-42
2022/11/15 10:20:54;;;;;;;;;4.67;4.67;;;;;12.31;78.20;100084.09;5056457;28;46449;-42
2022/11/15 10:23:22;;;;;;;;;6.33;4.00;;;;;12.35;78.38;100074.72;5056507;28;45377;-45
2022/11/15 10:25:52;;;;;;;;;2.00;2.00;;;;;12.35;78.09;100055.22;5056441;28;45296;-43
2022/11/15 10:28:24;;;;;;;;;6.00;3.67;;;;;12.36;78.74;100052.38;5057011;28;45336;-43
2022/11/15 10:30:54;;;;;;;;;2.67;2.67;;;;;12.39;77.90;100045.88;5056320;28;45323;-45
2022/11/15 10:33:29;;;;;;;;;11.00;3.67;;;;;12.40;78.38;100047.53;5056596;28;45482;-42
2022/11/15 10:36:12;;;;;;;;;4.00;3.00;;;;;12.40;78.90;100066.22;5056631;28;45297;-44
2022/11/15 10:38:50;;;;;;;;;4.67;3.67;;;;;12.43;78.90;100045.34;5056695;28;45220;-49
2022/11/15 10:41:41;;;;;;;;;2.67;2.67;;;;;12.41;78.97;100035.84;5057911;28;45941;-45
2022/11/15 10:44:07;;;;;;;;;8.33;4.00;;;;;12.40;79.07;100042.19;5056032;28;45363;-43
2022/11/15 10:46:34;;;;;;;;;2.67;2.67;;;;;12.38;79.31;100028.19;5060074;28;45434;-43
2022/11/15 10:49:20;;;;;;;;;6.00;6.00;;;;;12.40;79.44;100029.69;5060259;28;45323;-43
2022/11/15 10:51:49;;;;;;;;;10.00;8.33;;;;;12.42;80.24;100010.84;5059765;28;46165;-46
2022/11/15 10:54:27;;;;;;;;;8.00;8.00;;;;;12.43;80.05;100015.16;5059823;28;45437;-45
2022/11/15 10:56:55;;;;;;;;;9.00;8.00;;;;;12.38;80.05;100002.34;5060060;28;45479;-50
2022/11/15 10:59:28;;;;;;;;;7.67;7.33;;;;;12.39;79.87;100003.19;5060124;28;45506;-44
2022/11/15 11:01:54;;;;;;;;;11.00;8.00;;;;;12.43;80.30;99999.16;5059602;28;46230;-44
2022/11/15 11:04:19;;;;;;;;;8.00;7.00;;;;;12.39;80.12;99995.19;5059738;28;45212;-46
2022/11/15 11:06:57;;;;;;;;;6.67;6.33;;;;;12.31;80.44;99987.25;5059630;28;45378;-45
2022/11/15 11:09:35;;;;;;;;;7.33;6.00;;;;;12.32;80.92;99978.25;5060088;28;45430;-43
2022/11/15 11:12:03;;;;;;;;;9.67;4.33;;;;;12.34;80.54;99994.88;5059447;28;45269;-44
2022/11/15 11:14:33;;;;;;;;;8.50;7.00;;;;;12.30;80.84;99981.06;5059371;28;45220;-44
2022/11/15 11:17:23;;;;;;;;;8.33;7.00;;;;;12.26;82.02;99976.25;5059728;28;45244;-45
2022/11/15 11:20:00;;;;;;;;;8.00;4.00;;;;;12.26;81.60;99976.25;5059510;28;45419;-44
2022/11/15 11:22:34;;;;;;;;;8.33;4.67;;;;;12.16;81.99;99956.00;5059112;28;47344;-44
2022/11/15 11:25:02;;;;;;;;;9.33;8.00;;;;;12.23;82.54;99961.47;5059302;28;45351;-44
2022/11/15 11:28:01;;;;;;;;;8.00;8.00;;;;;12.25;82.58;99956.75;5059336;28;45398;-43
2022/11/15 11:30:52;;;;;;;;;10.33;9.00;;;;;12.25;81.93;99964.75;5059343;28;45437;-47
2022/11/15 11:33:31;;;;;;;;;7.00;7.00;;;;;12.26;82.40;99946.94;5059012;28;45528;-44
2022/11/15 11:36:06;;;;;;;;;7.00;7.00;;;;;12.24;82.68;99955.94;5058885;28;45327;-43
2022/11/15 11:38:39;;;;;;;;;10.00;10.00;;;;;12.25;82.60;99951.44;5059080;28;45474;-42
2022/11/15 11:41:44;;;;;;;;;7.67;7.00;;;;;12.25;82.65;99954.09;5059114;28;45447;-46
2022/11/15 11:44:38;;;;;;;;;12.00;7.00;;;;;12.24;83.01;99941.78;4976762;28;47106;-46
2022/11/15 11:47:20;;;;;;;;;7.00;6.67;;;;;12.24;83.85;99937.28;4955639;28;45552;-43
2022/11/15 11:49:51;;;;;;;;;10.00;8.33;;;;;12.21;84.21;99934.94;4970853;28;45562;-46
2022/11/15 11:52:36;;;;;;;;;12.33;7.33;;;;;12.21;84.02;99932.28;4956664;28;45488;-43